N22318 KMYF-KCRQ
Flight info
| Callsign | N22318 |
|---|---|
| Flight time | 0h 36m |
| Altitude | |
| Route | |
| Aircraft | C172/L-VGD/C |
Departure
| Time | 2026-05-06 23:19 |
|---|---|
| Airport | Montgomery-Gibbs Executive Airport (KMYF) |
Arrival
| Time | 2026-05-06 23:55 |
|---|---|
| Airport | McClellan-Palomar Airport (KCRQ) |
| Time | Latitude | Longitude | Altitude | Speed | Heading |
|---|---|---|---|---|---|
| 2026-05-06 23:05 | 32.81351 | -117.13974 | 424 ft | 0 kts | 22° |
| 2026-05-06 23:12 | 32.81352 | -117.13974 | 424 ft | 0 kts | 12° |
| 2026-05-06 23:12 | 32.81371 | -117.13952 | 416 ft | 12 kts | 63° |
| 2026-05-06 23:13 | 32.81334 | -117.13819 | 421 ft | 23 kts | 115° |
| 2026-05-06 23:13 | 32.81250 | -117.13606 | 422 ft | 33 kts | 114° |
| 2026-05-06 23:13 | 32.81135 | -117.13348 | 421 ft | 24 kts | 118° |
| 2026-05-06 23:13 | 32.81137 | -117.13238 | 420 ft | 13 kts | 58° |
| 2026-05-06 23:14 | 32.81185 | -117.13160 | 422 ft | 11 kts | 36° |
| 2026-05-06 23:14 | 32.81210 | -117.13145 | 426 ft | 0 kts | 25° |
| 2026-05-06 23:17 | 32.81226 | -117.13139 | 426 ft | 11 kts | 27° |
| 2026-05-06 23:18 | 32.81313 | -117.13191 | 421 ft | 32 kts | 295° |
| 2026-05-06 23:18 | 32.81469 | -117.13592 | 447 ft | 68 kts | 294° |
| 2026-05-06 23:18 | 32.81612 | -117.14124 | 662 ft | 68 kts | 288° |
| 2026-05-06 23:18 | 32.81714 | -117.14655 | 912 ft | 63 kts | 283° |
| 2026-05-06 23:19 | 32.81769 | -117.15166 | 1134 ft | 65 kts | 277° |
| 2026-05-06 23:19 | 32.81765 | -117.15752 | 1278 ft | 80 kts | 270° |
| 2026-05-06 23:19 | 32.81867 | -117.16415 | 1483 ft | 84 kts | 288° |
| 2026-05-06 23:19 | 32.82097 | -117.17066 | 1683 ft | 87 kts | 291° |
| 2026-05-06 23:20 | 32.82331 | -117.17712 | 1929 ft | 83 kts | 291° |
| 2026-05-06 23:20 | 32.82554 | -117.18341 | 2152 ft | 82 kts | 290° |
| 2026-05-06 23:20 | 32.82749 | -117.18964 | 2384 ft | 80 kts | 284° |
| 2026-05-06 23:20 | 32.82881 | -117.19600 | 2627 ft | 78 kts | 285° |
| 2026-05-06 23:21 | 32.83054 | -117.20205 | 2845 ft | 78 kts | 287° |
| 2026-05-06 23:21 | 32.83223 | -117.20818 | 3107 ft | 77 kts | 288° |
| 2026-05-06 23:21 | 32.83421 | -117.21426 | 3263 ft | 80 kts | 288° |
| 2026-05-06 23:21 | 32.83590 | -117.22061 | 3458 ft | 82 kts | 284° |
| 2026-05-06 23:22 | 32.83888 | -117.22596 | 3616 ft | 86 kts | 330° |
| 2026-05-06 23:22 | 32.84502 | -117.22649 | 3806 ft | 98 kts | 17° |
| 2026-05-06 23:22 | 32.85084 | -117.22177 | 4004 ft | 101 kts | 37° |
| 2026-05-06 23:22 | 32.85653 | -117.21623 | 4099 ft | 111 kts | 35° |
| 2026-05-06 23:23 | 32.86283 | -117.21016 | 4096 ft | 120 kts | 38° |
| 2026-05-06 23:23 | 32.86893 | -117.20414 | 4096 ft | 113 kts | 39° |
| 2026-05-06 23:23 | 32.87492 | -117.19816 | 4045 ft | 112 kts | 38° |
| 2026-05-06 23:23 | 32.88086 | -117.19228 | 3991 ft | 111 kts | 37° |
| 2026-05-06 23:24 | 32.88686 | -117.18681 | 3980 ft | 104 kts | 32° |
| 2026-05-06 23:24 | 32.89251 | -117.18170 | 3993 ft | 100 kts | 34° |
| 2026-05-06 23:24 | 32.89801 | -117.17677 | 3970 ft | 98 kts | 34° |
| 2026-05-06 23:24 | 32.90349 | -117.17191 | 3974 ft | 98 kts | 32° |
| 2026-05-06 23:25 | 32.90897 | -117.16711 | 3982 ft | 98 kts | 33° |
| 2026-05-06 23:25 | 32.91449 | -117.16233 | 3979 ft | 97 kts | 33° |
| 2026-05-06 23:25 | 32.92014 | -117.15793 | 3981 ft | 97 kts | 27° |
| 2026-05-06 23:25 | 32.92541 | -117.15300 | 3982 ft | 97 kts | 37° |
| 2026-05-06 23:26 | 32.93070 | -117.14794 | 3980 ft | 98 kts | 36° |
| 2026-05-06 23:26 | 32.93600 | -117.14282 | 3971 ft | 96 kts | 37° |
| 2026-05-06 23:26 | 32.94137 | -117.13773 | 3988 ft | 103 kts | 37° |
| 2026-05-06 23:26 | 32.94725 | -117.13217 | 3988 ft | 112 kts | 36° |
| 2026-05-06 23:27 | 32.95351 | -117.12635 | 3991 ft | 116 kts | 36° |
| 2026-05-06 23:27 | 32.95999 | -117.12031 | 3990 ft | 119 kts | 36° |
| 2026-05-06 23:27 | 32.96657 | -117.11417 | 3983 ft | 121 kts | 36° |
| 2026-05-06 23:27 | 32.97318 | -117.10796 | 3983 ft | 120 kts | 36° |
| 2026-05-06 23:28 | 32.97968 | -117.10184 | 3981 ft | 118 kts | 36° |
| 2026-05-06 23:28 | 32.98596 | -117.09600 | 3977 ft | 115 kts | 36° |
| 2026-05-06 23:28 | 32.99236 | -117.09005 | 3977 ft | 118 kts | 36° |
| 2026-05-06 23:28 | 32.99885 | -117.08400 | 3977 ft | 118 kts | 36° |
| 2026-05-06 23:29 | 33.00537 | -117.07790 | 3971 ft | 120 kts | 36° |
| 2026-05-06 23:29 | 33.01193 | -117.07173 | 3965 ft | 119 kts | 36° |
| 2026-05-06 23:29 | 33.01853 | -117.06562 | 3969 ft | 121 kts | 34° |
| 2026-05-06 23:29 | 33.02529 | -117.05977 | 3972 ft | 120 kts | 36° |
| 2026-05-06 23:30 | 33.03187 | -117.05362 | 3969 ft | 120 kts | 36° |
| 2026-05-06 23:30 | 33.03846 | -117.04747 | 3970 ft | 119 kts | 36° |
| 2026-05-06 23:30 | 33.04498 | -117.04141 | 3968 ft | 119 kts | 36° |
| 2026-05-06 23:30 | 33.05145 | -117.03537 | 3964 ft | 119 kts | 36° |
| 2026-05-06 23:31 | 33.05799 | -117.02925 | 3965 ft | 120 kts | 36° |
| 2026-05-06 23:31 | 33.06448 | -117.02315 | 3969 ft | 120 kts | 36° |
| 2026-05-06 23:31 | 33.07108 | -117.01698 | 3971 ft | 121 kts | 37° |
| 2026-05-06 23:31 | 33.07766 | -117.01084 | 3961 ft | 117 kts | 36° |
| 2026-05-06 23:32 | 33.08410 | -117.00480 | 3963 ft | 119 kts | 36° |
| 2026-05-06 23:32 | 33.09069 | -116.99883 | 3968 ft | 119 kts | 34° |
| 2026-05-06 23:32 | 33.09724 | -116.99273 | 3976 ft | 121 kts | 36° |
| 2026-05-06 23:32 | 33.10397 | -116.98647 | 3977 ft | 123 kts | 36° |
| 2026-05-06 23:33 | 33.11075 | -116.98014 | 3977 ft | 125 kts | 36° |
| 2026-05-06 23:33 | 33.11758 | -116.97371 | 3983 ft | 125 kts | 34° |
| 2026-05-06 23:33 | 33.12499 | -116.96815 | 3958 ft | 125 kts | 9° |
| 2026-05-06 23:33 | 33.13281 | -116.97068 | 3953 ft | 116 kts | 324° |
| 2026-05-06 23:34 | 33.13919 | -116.97636 | 3949 ft | 116 kts | 322° |
| 2026-05-06 23:34 | 33.14554 | -116.98216 | 3975 ft | 117 kts | 320° |
| 2026-05-06 23:34 | 33.15184 | -116.98782 | 3974 ft | 112 kts | 321° |
| 2026-05-06 23:34 | 33.15803 | -116.99335 | 3969 ft | 112 kts | 322° |
| 2026-05-06 23:35 | 33.16419 | -116.99886 | 3973 ft | 107 kts | 322° |
| 2026-05-06 23:35 | 33.16764 | -117.00612 | 3970 ft | 101 kts | 279° |
| 2026-05-06 23:35 | 33.16886 | -117.01469 | 3959 ft | 107 kts | 281° |
| 2026-05-06 23:35 | 33.17023 | -117.02309 | 3980 ft | 103 kts | 282° |
| 2026-05-06 23:36 | 33.17157 | -117.03171 | 3974 ft | 107 kts | 281° |
| 2026-05-06 23:36 | 33.17285 | -117.04034 | 3971 ft | 106 kts | 281° |
| 2026-05-06 23:36 | 33.17424 | -117.04895 | 3974 ft | 106 kts | 281° |
| 2026-05-06 23:36 | 33.17512 | -117.05764 | 3967 ft | 104 kts | 267° |
| 2026-05-06 23:37 | 33.17578 | -117.06635 | 3959 ft | 105 kts | 278° |
| 2026-05-06 23:37 | 33.17669 | -117.07505 | 3970 ft | 103 kts | 278° |
| 2026-05-06 23:37 | 33.17761 | -117.08360 | 3977 ft | 106 kts | 278° |
| 2026-05-06 23:37 | 33.17850 | -117.09173 | 3975 ft | 109 kts | 278° |
| 2026-05-06 23:38 | 33.17951 | -117.10077 | 3972 ft | 110 kts | 277° |
| 2026-05-06 23:38 | 33.18050 | -117.10938 | 3967 ft | 108 kts | 278° |
| 2026-05-06 23:38 | 33.18310 | -117.11753 | 3980 ft | 111 kts | 317° |
| 2026-05-06 23:38 | 33.19061 | -117.11860 | 3983 ft | 119 kts | 24° |
| 2026-05-06 23:39 | 33.19516 | -117.11059 | 3986 ft | 123 kts | 80° |
| 2026-05-06 23:39 | 33.19642 | -117.10051 | 3963 ft | 119 kts | 81° |
| 2026-05-06 23:39 | 33.19767 | -117.09111 | 3973 ft | 117 kts | 81° |
| 2026-05-06 23:39 | 33.19900 | -117.08125 | 3979 ft | 121 kts | 80° |
| 2026-05-06 23:40 | 33.20002 | -117.07158 | 3961 ft | 116 kts | 94° |
| 2026-05-06 23:40 | 33.19624 | -117.06344 | 3969 ft | 112 kts | 132° |
| 2026-05-06 23:40 | 33.19126 | -117.05615 | 3961 ft | 113 kts | 131° |
| 2026-05-06 23:40 | 33.18643 | -117.04897 | 3978 ft | 110 kts | 130° |
| 2026-05-06 23:41 | 33.18146 | -117.04168 | 3976 ft | 117 kts | 131° |
| 2026-05-06 23:41 | 33.17622 | -117.03405 | 3978 ft | 120 kts | 131° |
| 2026-05-06 23:41 | 33.17102 | -117.02634 | 3979 ft | 118 kts | 130° |
| 2026-05-06 23:41 | 33.16575 | -117.01873 | 3978 ft | 120 kts | 130° |
| 2026-05-06 23:42 | 33.16059 | -117.01112 | 3969 ft | 116 kts | 130° |
| 2026-05-06 23:42 | 33.15559 | -117.00365 | 3970 ft | 116 kts | 131° |
| 2026-05-06 23:42 | 33.15042 | -116.99601 | 3966 ft | 120 kts | 131° |
| 2026-05-06 23:42 | 33.14510 | -116.98815 | 3969 ft | 123 kts | 131° |
| 2026-05-06 23:43 | 33.13971 | -116.98033 | 3976 ft | 122 kts | 131° |
| 2026-05-06 23:43 | 33.13445 | -116.97254 | 3974 ft | 121 kts | 131° |
| 2026-05-06 23:43 | 33.12819 | -116.96644 | 3978 ft | 116 kts | 171° |
| 2026-05-06 23:43 | 33.12108 | -116.96941 | 3986 ft | 112 kts | 229° |
| 2026-05-06 23:44 | 33.11587 | -116.97649 | 3979 ft | 114 kts | 230° |
| 2026-05-06 23:44 | 33.11081 | -116.98356 | 3977 ft | 109 kts | 243° |
| 2026-05-06 23:44 | 33.11057 | -116.99235 | 3978 ft | 109 kts | 282° |
| 2026-05-06 23:44 | 33.11192 | -117.00123 | 3984 ft | 108 kts | 281° |
| 2026-05-06 23:45 | 33.11323 | -117.01016 | 3978 ft | 109 kts | 281° |
| 2026-05-06 23:45 | 33.11456 | -117.01908 | 3978 ft | 109 kts | 281° |
| 2026-05-06 23:45 | 33.11589 | -117.02790 | 3973 ft | 108 kts | 281° |
| 2026-05-06 23:45 | 33.11716 | -117.03677 | 3967 ft | 109 kts | 281° |
| 2026-05-06 23:46 | 33.11849 | -117.04563 | 3964 ft | 109 kts | 281° |
| 2026-05-06 23:46 | 33.11982 | -117.05473 | 3879 ft | 114 kts | 280° |
| 2026-05-06 23:46 | 33.12069 | -117.06098 | 3838 ft | 115 kts | 280° |
| 2026-05-06 23:46 | 33.12202 | -117.07045 | 3710 ft | 113 kts | 281° |
| 2026-05-06 23:47 | 33.12347 | -117.07941 | 3566 ft | 109 kts | 281° |
| 2026-05-06 23:47 | 33.12481 | -117.08815 | 3410 ft | 107 kts | 281° |
| 2026-05-06 23:47 | 33.12618 | -117.09681 | 3297 ft | 104 kts | 281° |
| 2026-05-06 23:47 | 33.12746 | -117.10518 | 3164 ft | 102 kts | 280° |
| 2026-05-06 23:48 | 33.12868 | -117.11320 | 3050 ft | 96 kts | 280° |
| 2026-05-06 23:48 | 33.12974 | -117.12092 | 2886 ft | 91 kts | 280° |
| 2026-05-06 23:48 | 33.13084 | -117.12825 | 2759 ft | 88 kts | 282° |
| 2026-05-06 23:48 | 33.13195 | -117.13526 | 2612 ft | 85 kts | 281° |
| 2026-05-06 23:49 | 33.13296 | -117.14216 | 2418 ft | 88 kts | 282° |
| 2026-05-06 23:49 | 33.13408 | -117.14912 | 2300 ft | 80 kts | 283° |
| 2026-05-06 23:49 | 33.13490 | -117.15468 | 2255 ft | 63 kts | 280° |
| 2026-05-06 23:49 | 33.13539 | -117.15964 | 2158 ft | 62 kts | 276° |
| 2026-05-06 23:50 | 33.13602 | -117.16526 | 2145 ft | 72 kts | 280° |
| 2026-05-06 23:50 | 33.13730 | -117.17738 | 2187 ft | 72 kts | 279° |
| 2026-05-06 23:50 | 33.13765 | -117.18326 | 2104 ft | 73 kts | 280° |
| 2026-05-06 23:51 | 33.13845 | -117.18926 | 1985 ft | 73 kts | 279° |
| 2026-05-06 23:51 | 33.13907 | -117.19512 | 1869 ft | 70 kts | 280° |
| 2026-05-06 23:51 | 33.13957 | -117.20105 | 1706 ft | 72 kts | 277° |
| 2026-05-06 23:51 | 33.13985 | -117.20693 | 1602 ft | 72 kts | 266° |
| 2026-05-06 23:52 | 33.13879 | -117.21277 | 1499 ft | 70 kts | 263° |
| 2026-05-06 23:52 | 33.13786 | -117.21848 | 1390 ft | 71 kts | 263° |
| 2026-05-06 23:52 | 33.13695 | -117.22429 | 1228 ft | 74 kts | 264° |
| 2026-05-06 23:52 | 33.13583 | -117.22994 | 1089 ft | 66 kts | 266° |
| 2026-05-06 23:53 | 33.13515 | -117.23494 | 1027 ft | 57 kts | 266° |
| 2026-05-06 23:53 | 33.13473 | -117.23985 | 945 ft | 61 kts | 263° |
| 2026-05-06 23:53 | 33.13377 | -117.24477 | 842 ft | 62 kts | 262° |
| 2026-05-06 23:53 | 33.13280 | -117.24991 | 728 ft | 65 kts | 262° |
| 2026-05-06 23:54 | 33.13225 | -117.25541 | 668 ft | 64 kts | 266° |
| 2026-05-06 23:54 | 33.13148 | -117.26040 | 599 ft | 59 kts | 265° |
| 2026-05-06 23:54 | 33.13062 | -117.26529 | 503 ft | 63 kts | 263° |
| 2026-05-06 23:54 | 33.12978 | -117.27074 | 390 ft | 67 kts | 264° |
| 2026-05-06 23:55 | 33.12904 | -117.27547 | 330 ft | 47 kts | 263° |
| 2026-05-06 23:55 | 33.12846 | -117.27860 | 330 ft | 29 kts | 244° |
| 2026-05-06 23:55 | 33.12788 | -117.27957 | 331 ft | 10 kts | 225° |
| 2026-05-06 23:55 | 33.12748 | -117.28010 | 332 ft | 7 kts | 231° |
| 2026-05-06 23:56 | 33.12738 | -117.28046 | 329 ft | 2 kts | 262° |